createdAt,value
2023-08-16T00:01:45.826Z,99978.63
2023-08-16T00:04:48.755Z,99988.44
2023-08-16T00:07:51.701Z,99990.72
2023-08-16T00:10:54.618Z,99988.88
2023-08-16T00:13:59.202Z,99990.94
2023-08-16T00:17:02.269Z,99989.91
2023-08-16T00:20:11.005Z,99981.16
2023-08-16T00:23:13.923Z,99973.47
2023-08-16T00:26:16.799Z,99981.63
2023-08-16T00:29:21.086Z,99982.13
2023-08-16T00:32:24.010Z,99996.72
2023-08-16T00:35:27.090Z,99995.13
2023-08-16T00:38:30.200Z,99993.19
2023-08-16T00:41:33.169Z,100002.81
2023-08-16T00:44:37.839Z,100002.50
2023-08-16T00:47:42.057Z,99988.88
2023-08-16T00:50:45.309Z,99994.50
2023-08-16T00:53:48.411Z,99995.06
2023-08-16T00:56:51.340Z,99978.63
2023-08-16T00:59:55.620Z,99988.38
2023-08-16T01:02:58.688Z,99980.34
2023-08-16T01:06:01.890Z,99980.72
2023-08-16T01:09:05.740Z,99980.72
2023-08-16T01:12:12.821Z,99977.34
2023-08-16T01:15:20.996Z,99979.59
2023-08-16T01:18:24.135Z,99981.66
2023-08-16T01:21:28.659Z,99982.56
2023-08-16T01:24:37.186Z,99969.72
2023-08-16T01:27:41.471Z,99975.34
2023-08-16T01:30:46.929Z,99978.78
2023-08-16T01:33:49.959Z,99978.91
2023-08-16T01:36:52.851Z,99976.72
2023-08-16T01:40:03.422Z,99975.16
2023-08-16T01:43:09.071Z,99978.25
2023-08-16T01:46:12.292Z,99967.72
2023-08-16T01:49:15.785Z,99976.34
2023-08-16T01:52:18.675Z,99958.44
2023-08-16T01:55:21.604Z,99969.28
2023-08-16T01:58:26.112Z,99973.34
2023-08-16T02:01:29.246Z,99965.81
2023-08-16T02:04:32.209Z,99960.47
2023-08-16T02:07:35.040Z,99963.19
2023-08-16T02:10:38.134Z,99962.16
2023-08-16T02:13:42.426Z,99963.88
2023-08-16T02:16:45.400Z,99960.78
2023-08-16T02:19:49.485Z,99965.81
2023-08-16T02:22:52.316Z,99963.69
2023-08-16T02:25:55.339Z,99957.97
2023-08-16T02:28:59.555Z,99971.41
2023-08-16T02:32:02.507Z,99978.06
2023-08-16T02:35:06.029Z,99978.91
2023-08-16T02:38:08.958Z,99967.56
2023-08-16T02:41:11.861Z,99966.13
2023-08-16T02:44:16.129Z,99968.53
2023-08-16T02:47:19.053Z,99966.94
2023-08-16T02:50:22.386Z,99970.03
2023-08-16T02:53:25.252Z,99971.09
2023-08-16T02:56:28.133Z,99982.31
2023-08-16T02:59:40.956Z,99976.59
2023-08-16T03:02:44.042Z,99966.31
2023-08-16T03:05:47.048Z,99966.50
2023-08-16T03:08:49.927Z,99976.34
2023-08-16T03:11:52.822Z,99975.28
2023-08-16T03:14:57.105Z,99982.78
2023-08-16T03:18:00.047Z,99976.03
2023-08-16T03:21:03.002Z,99986.31
2023-08-16T03:24:06.633Z,99990.34
2023-08-16T03:27:10.157Z,99992.22
2023-08-16T03:30:17.927Z,99996.28
2023-08-16T03:33:20.792Z,99989.44
2023-08-16T03:36:23.980Z,99993.78
2023-08-16T03:39:27.019Z,99997.38
2023-08-16T03:42:29.904Z,99998.00
2023-08-16T03:45:37.883Z,99993.53
2023-08-16T03:48:40.738Z,99982.72
2023-08-16T03:51:43.557Z,99992.28
2023-08-16T03:54:46.522Z,99996.44
2023-08-16T03:57:49.359Z,100009.66
2023-08-16T04:00:54.378Z,100009.00
2023-08-16T04:03:57.390Z,100009.75
2023-08-16T04:07:00.940Z,100005.41
2023-08-16T04:10:03.985Z,100029.97
2023-08-16T04:13:07.274Z,100021.59
2023-08-16T04:16:11.628Z,100024.06
2023-08-16T04:19:14.897Z,100038.66
2023-08-16T04:22:17.799Z,100042.63
2023-08-16T04:25:21.636Z,100027.91
2023-08-16T04:28:24.525Z,100050.13
2023-08-16T04:31:28.841Z,100041.34
2023-08-16T04:34:31.829Z,100035.88
2023-08-16T04:37:34.658Z,100043.16
2023-08-16T04:40:37.555Z,100038.16
2023-08-16T04:43:40.486Z,100047.13
2023-08-16T04:46:45.145Z,100048.91
2023-08-16T04:49:48.171Z,100059.47
2023-08-16T04:52:51.099Z,100057.09
2023-08-16T04:55:54.054Z,100061.88
2023-08-16T04:58:56.975Z,100058.31
2023-08-16T05:02:01.267Z,100061.34
2023-08-16T05:05:04.340Z,100048.22
2023-08-16T05:08:07.483Z,100054.03
2023-08-16T05:11:10.453Z,100064.88
2023-08-16T05:14:13.336Z,100066.44
2023-08-16T05:17:17.662Z,100062.38
2023-08-16T05:20:20.502Z,100057.47
2023-08-16T05:23:23.561Z,100059.78
2023-08-16T05:26:26.565Z,100061.63
2023-08-16T05:29:29.789Z,100071.78
2023-08-16T05:32:34.281Z,100069.75
2023-08-16T05:35:37.559Z,100081.66
2023-08-16T05:38:40.543Z,100076.81
2023-08-16T05:41:43.968Z,100072.94
2023-08-16T05:44:47.175Z,100081.84
2023-08-16T05:47:51.542Z,100074.56
2023-08-16T05:50:54.651Z,100072.88
2023-08-16T05:53:57.655Z,100071.22
2023-08-16T05:57:00.557Z,100074.88
2023-08-16T06:00:04.076Z,100072.63
2023-08-16T06:03:08.579Z,100066.97
2023-08-16T06:06:11.511Z,100083.19
2023-08-16T06:09:14.447Z,100080.94
2023-08-16T06:12:17.570Z,100078.69
2023-08-16T06:15:20.498Z,100069.59
2023-08-16T06:18:24.844Z,100074.50
2023-08-16T06:21:27.954Z,100082.66
2023-08-16T06:24:36.555Z,100087.13
2023-08-16T06:27:40.162Z,100076.22
2023-08-16T06:30:43.566Z,100066.78
2023-08-16T06:33:47.949Z,100067.59
2023-08-16T06:36:50.887Z,100076.84
2023-08-16T06:39:53.939Z,100060.94
2023-08-16T06:42:56.882Z,100076.25
2023-08-16T06:45:59.782Z,100067.69
2023-08-16T06:49:04.800Z,100072.88
2023-08-16T06:52:08.982Z,100068.25
2023-08-16T06:55:12.063Z,100063.78
2023-08-16T06:58:18.055Z,100061.19
2023-08-16T07:01:20.998Z,100073.94
2023-08-16T07:04:25.330Z,100072.69
2023-08-16T07:07:28.437Z,100082.88
2023-08-16T07:10:31.279Z,100077.97
2023-08-16T07:13:34.163Z,100079.28
2023-08-16T07:16:37.852Z,100070.06
2023-08-16T07:19:43.976Z,100070.84
2023-08-16T07:22:47.151Z,100069.09
2023-08-16T07:25:59.152Z,100083.69
2023-08-16T07:29:02.078Z,100082.69
2023-08-16T07:32:05.463Z,100080.91
2023-08-16T07:35:10.671Z,100085.09
2023-08-16T07:38:13.703Z,100097.28
2023-08-16T07:41:17.004Z,100089.16
2023-08-16T07:44:19.928Z,100093.06
2023-08-16T07:47:22.738Z,100098.72
2023-08-16T07:50:27.008Z,100097.38
2023-08-16T07:53:29.981Z,100093.25
2023-08-16T07:56:32.976Z,100098.78
2023-08-16T07:59:36.522Z,100097.88
2023-08-16T08:05:45.261Z,100094.81
2023-08-16T08:08:48.158Z,100095.31
2023-08-16T08:11:51.123Z,100092.63
2023-08-16T08:14:54.225Z,100093.47
2023-08-16T08:17:57.292Z,100101.47
2023-08-16T08:21:05.973Z,100094.09
2023-08-16T08:24:09.131Z,100107.72
2023-08-16T08:27:12.389Z,100103.41
2023-08-16T08:30:18.296Z,100104.19
2023-08-16T08:33:21.303Z,100099.53
2023-08-16T08:36:25.739Z,100094.16
2023-08-16T08:39:30.263Z,100099.28
2023-08-16T08:42:33.960Z,100090.28
2023-08-16T08:45:38.722Z,100105.72
2023-08-16T08:48:42.401Z,100096.75
2023-08-16T08:51:46.702Z,100102.16
2023-08-16T08:54:50.418Z,100099.88
2023-08-16T08:57:56.265Z,100112.69
2023-08-16T09:00:59.796Z,100109.84
2023-08-16T09:04:04.223Z,100112.41
2023-08-16T09:07:10.016Z,100097.53
2023-08-16T09:10:13.691Z,100103.44
2023-08-16T09:13:16.907Z,100104.72
2023-08-16T09:16:19.986Z,100112.97
2023-08-16T09:19:22.906Z,100099.56
2023-08-16T09:22:28.350Z,100110.09
2023-08-16T09:25:31.665Z,100101.09
2023-08-16T09:28:34.600Z,100103.41
2023-08-16T09:31:42.691Z,100097.22
2023-08-16T09:38:17.968Z,100099.72
2023-08-16T09:41:21.784Z,100102.22
2023-08-16T09:44:29.359Z,100094.78
2023-08-16T09:50:51.904Z,100091.84
2023-08-16T09:53:58.067Z,100095.69
2023-08-16T10:00:11.186Z,100091.47
2023-08-16T10:03:14.426Z,100088.19
2023-08-16T10:06:20.665Z,100087.66
2023-08-16T10:09:25.513Z,100075.69
2023-08-16T10:12:29.673Z,100086.81
2023-08-16T10:15:34.444Z,100084.53
2023-08-16T10:18:37.765Z,100093.50
2023-08-16T10:21:42.365Z,100080.69
2023-08-16T10:24:50.743Z,100076.94
2023-08-16T10:27:57.456Z,100071.31
2023-08-16T10:34:10.289Z,100074.19
2023-08-16T10:37:16.479Z,100074.84
2023-08-16T10:40:26.177Z,100070.31
2023-08-16T10:43:36.995Z,100076.22
2023-08-16T10:46:40.959Z,100062.69
2023-08-16T10:49:46.904Z,100057.56
2023-08-16T10:52:52.735Z,100066.22
2023-08-16T10:55:59.434Z,100067.19
2023-08-16T10:59:08.727Z,100063.97
2023-08-16T11:02:16.348Z,100070.63
2023-08-16T11:05:23.606Z,100057.56
2023-08-16T11:08:26.937Z,100060.63
2023-08-16T11:11:31.383Z,100056.13
2023-08-16T11:14:35.289Z,100052.31
2023-08-16T11:17:41.114Z,100054.47
2023-08-16T11:20:44.561Z,100045.16
2023-08-16T11:23:48.116Z,100046.94
2023-08-16T11:26:54.789Z,100047.06
2023-08-16T11:30:00.878Z,100052.81
2023-08-16T11:33:04.077Z,100051.94
2023-08-16T11:36:08.380Z,100053.28
2023-08-16T11:39:12.096Z,100039.88
2023-08-16T11:42:16.497Z,100037.09
2023-08-16T11:45:27.419Z,100028.09
2023-08-16T11:48:31.105Z,100027.59
2023-08-16T11:51:34.174Z,100023.00
2023-08-16T11:54:38.910Z,100014.78
2023-08-16T11:57:49.498Z,100002.84
2023-08-16T12:00:52.626Z,100004.56
2023-08-16T12:03:56.861Z,99989.47
2023-08-16T12:07:01.661Z,99994.78
2023-08-16T12:10:04.707Z,99993.84
2023-08-16T12:13:15.824Z,99973.34
2023-08-16T12:16:18.817Z,99972.41
2023-08-16T12:19:21.861Z,99985.31
2023-08-16T12:22:24.930Z,99967.88
2023-08-16T12:25:27.884Z,99964.75
2023-08-16T12:28:32.287Z,99963.53
2023-08-16T12:31:35.670Z,99965.09
2023-08-16T12:34:47.856Z,99964.38
2023-08-16T12:38:04.097Z,99958.50
2023-08-16T12:41:08.770Z,99961.00
2023-08-16T12:44:16.069Z,99954.59
2023-08-16T12:47:19.077Z,99944.22
2023-08-16T12:50:22.387Z,99947.03
2023-08-16T12:56:31.249Z,99947.34
2023-08-16T12:59:35.597Z,99928.88
2023-08-16T13:02:38.598Z,99936.50
2023-08-16T13:05:54.512Z,99931.75
2023-08-16T13:09:03.311Z,99929.25
2023-08-16T13:12:09.698Z,99928.78
2023-08-16T13:15:26.162Z,99920.44
2023-08-16T13:18:44.595Z,99913.94
2023-08-16T13:28:02.995Z,99927.59
2023-08-16T13:31:20.449Z,99926.88
2023-08-16T13:37:45.180Z,99931.28
2023-08-16T13:40:53.539Z,99941.81
2023-08-16T13:44:23.863Z,99937.53
2023-08-16T13:47:21.198Z,99949.22
2023-08-16T13:50:24.232Z,99943.19
2023-08-16T13:53:27.219Z,99951.81
2023-08-16T13:56:36.016Z,99968.56
2023-08-16T13:59:50.218Z,99972.03
2023-08-16T14:02:54.556Z,99989.56
2023-08-16T14:06:01.715Z,99984.56
2023-08-16T14:09:04.784Z,99977.22
2023-08-16T14:12:08.417Z,99985.78
2023-08-16T14:15:12.096Z,100005.91
2023-08-16T14:18:16.450Z,100004.69
2023-08-16T14:21:19.531Z,100031.34
2023-08-16T14:24:22.487Z,100028.69
2023-08-16T14:27:30.483Z,100012.72
2023-08-16T14:30:33.941Z,100012.97
2023-08-16T14:33:38.430Z,100010.72
2023-08-16T14:36:41.409Z,100017.16
2023-08-16T14:39:44.377Z,100027.44
2023-08-16T14:42:47.393Z,100021.03
2023-08-16T14:45:50.352Z,100024.97
2023-08-16T14:48:56.297Z,100025.75
2023-08-16T14:51:59.318Z,100020.72
2023-08-16T14:55:02.410Z,100012.88
2023-08-16T14:58:06.797Z,100007.25
2023-08-16T15:01:09.764Z,100004.56
2023-08-16T15:04:15.442Z,100010.31
2023-08-16T15:07:19.614Z,99992.97
2023-08-16T15:10:22.814Z,99990.00
2023-08-16T15:13:25.825Z,99984.59
2023-08-16T15:16:32.021Z,99968.44
2023-08-16T15:19:41.579Z,99968.75
2023-08-16T15:22:44.477Z,99966.34
2023-08-16T15:25:47.659Z,99968.97
2023-08-16T15:28:50.530Z,99975.03
2023-08-16T15:31:53.479Z,99966.41
2023-08-16T15:34:57.795Z,99964.50
2023-08-16T15:38:00.662Z,99970.13
2023-08-16T15:41:03.566Z,99955.47
2023-08-16T15:44:06.563Z,99948.13
2023-08-16T15:47:09.463Z,99947.97
2023-08-16T15:50:13.927Z,99953.19
2023-08-16T15:53:16.826Z,99949.34
2023-08-16T15:56:19.856Z,99952.38
2023-08-16T15:59:24.470Z,99941.13
2023-08-16T16:02:31.832Z,99951.69
2023-08-16T16:05:36.480Z,99965.94
2023-08-16T16:08:40.124Z,99985.63
2023-08-16T16:11:43.970Z,99987.91
2023-08-16T16:14:46.876Z,99991.25
2023-08-16T16:17:50.032Z,99990.22
2023-08-16T16:20:54.860Z,99996.09
2023-08-16T16:23:58.740Z,99992.06
2023-08-16T16:27:01.814Z,99990.25
2023-08-16T16:30:05.232Z,99994.88
2023-08-16T16:33:08.419Z,99995.31
2023-08-16T16:36:13.611Z,100001.94
2023-08-16T16:39:17.476Z,100008.59
2023-08-16T16:42:20.574Z,99993.97
2023-08-16T16:45:24.145Z,99998.59
2023-08-16T16:48:27.433Z,100004.31
2023-08-16T16:51:32.752Z,100015.00
2023-08-16T16:54:36.027Z,100005.94
2023-08-16T16:57:40.432Z,100009.31
2023-08-16T17:00:44.589Z,100014.72
2023-08-16T17:03:48.610Z,99998.28
2023-08-16T17:06:56.530Z,100008.03
2023-08-16T17:10:00.800Z,100013.84
2023-08-16T17:13:04.120Z,100012.84
2023-08-16T17:16:14.234Z,100020.44
2023-08-16T17:19:18.482Z,100012.50
2023-08-16T17:22:24.061Z,99999.28
2023-08-16T17:25:28.526Z,100001.81
2023-08-16T17:28:32.209Z,99997.44
2023-08-16T17:31:37.953Z,99984.94
2023-08-16T17:34:41.631Z,99984.94
2023-08-16T17:37:47.186Z,99988.38
2023-08-16T17:40:51.790Z,99989.66
2023-08-16T17:43:59.538Z,99999.53
2023-08-16T17:47:03.239Z,99990.63
2023-08-16T17:50:07.960Z,99991.22
2023-08-16T17:53:14.279Z,99976.34
2023-08-16T17:56:18.419Z,99970.03
2023-08-16T17:59:24.396Z,99970.63
2023-08-16T18:02:28.317Z,99971.44
2023-08-16T18:05:33.100Z,99979.19
2023-08-16T18:08:39.670Z,99980.97
2023-08-16T18:11:43.095Z,99973.53
2023-08-16T18:14:48.931Z,99977.78
2023-08-16T18:17:52.828Z,99985.13
2023-08-16T18:20:58.073Z,99992.25
2023-08-16T18:24:02.373Z,99988.94
2023-08-16T18:27:06.604Z,99993.75
2023-08-16T18:30:11.777Z,100001.06
2023-08-16T18:33:16.130Z,100006.75
2023-08-16T18:36:20.877Z,100013.50
2023-08-16T18:39:26.222Z,100027.31
2023-08-16T18:42:31.566Z,100034.88
2023-08-16T18:45:35.909Z,100022.09
2023-08-16T18:48:40.981Z,100022.50
2023-08-16T18:51:49.432Z,100034.88
2023-08-16T18:54:55.253Z,100044.63
2023-08-16T18:57:59.761Z,100052.13
2023-08-16T19:01:06.369Z,100050.09
2023-08-16T19:04:10.068Z,100052.44
2023-08-16T19:07:13.945Z,100057.66
2023-08-16T19:10:19.621Z,100052.47
2023-08-16T19:13:24.582Z,100058.97
2023-08-16T19:16:29.056Z,100054.41
2023-08-16T19:19:34.284Z,100053.16
2023-08-16T19:22:39.080Z,100063.59
2023-08-16T19:25:43.921Z,100051.63
2023-08-16T19:28:47.498Z,100061.28
2023-08-16T19:31:51.713Z,100069.72
2023-08-16T19:34:57.888Z,100068.34
2023-08-16T19:38:01.621Z,100072.09
2023-08-16T19:41:07.516Z,100080.19
2023-08-16T19:44:11.793Z,100067.94
2023-08-16T19:47:15.067Z,100061.25
2023-08-16T19:50:19.920Z,100059.28
2023-08-16T19:53:23.664Z,100058.53
2023-08-16T19:56:29.779Z,100064.19
2023-08-16T19:59:33.635Z,100061.97
2023-08-16T20:02:37.900Z,100060.06
2023-08-16T20:05:42.351Z,100065.22
2023-08-16T20:08:45.460Z,100059.00
2023-08-16T20:11:54.817Z,100052.97
2023-08-16T20:14:59.386Z,100054.19
2023-08-16T20:18:04.298Z,100050.94
2023-08-16T20:21:08.120Z,100055.59
2023-08-16T20:24:13.760Z,100052.69
2023-08-16T20:27:20.524Z,100052.25
2023-08-16T20:30:24.521Z,100056.06
2023-08-16T20:33:28.822Z,100056.66
2023-08-16T20:36:32.466Z,100045.72
2023-08-16T20:39:35.630Z,100047.91
2023-08-16T20:42:42.402Z,100049.91
2023-08-16T20:45:46.019Z,100052.44
2023-08-16T20:48:50.322Z,100055.22
2023-08-16T20:51:53.710Z,100050.88
2023-08-16T20:54:58.229Z,100044.50
2023-08-16T20:58:03.324Z,100040.63
2023-08-16T21:01:06.477Z,100041.44
2023-08-16T21:04:09.419Z,100039.09
2023-08-16T21:07:12.475Z,100038.03
2023-08-16T21:10:19.145Z,100036.47
2023-08-16T21:13:23.555Z,100037.59
2023-08-16T21:16:26.509Z,100041.19
2023-08-16T21:19:29.581Z,100032.50
2023-08-16T21:22:32.399Z,100040.72
2023-08-16T21:25:35.354Z,100046.31
2023-08-16T21:28:39.688Z,100047.88
2023-08-16T21:31:42.610Z,100058.28
2023-08-16T21:34:45.613Z,100051.47
2023-08-16T21:37:48.677Z,100060.81
2023-08-16T21:40:58.321Z,100068.31
2023-08-16T21:44:02.903Z,100067.25
2023-08-16T21:47:05.992Z,100065.84
2023-08-16T21:50:09.912Z,100061.06
2023-08-16T21:53:12.771Z,100068.22
2023-08-16T21:56:16.275Z,100065.09
2023-08-16T21:59:20.943Z,100064.50
2023-08-16T22:02:23.983Z,100059.81
2023-08-16T22:05:26.949Z,100056.91
2023-08-16T22:08:29.907Z,100062.03
2023-08-16T22:11:32.837Z,100056.13
2023-08-16T22:14:37.256Z,100057.88
2023-08-16T22:17:40.570Z,100065.00
2023-08-16T22:20:56.594Z,100068.94
2023-08-16T22:24:08.528Z,100062.09
2023-08-16T22:27:11.395Z,100063.50
2023-08-16T22:30:16.069Z,100064.72
2023-08-16T22:33:19.037Z,100071.44
2023-08-16T22:36:21.988Z,100069.09
2023-08-16T22:39:24.875Z,100056.16
2023-08-16T22:42:28.543Z,100056.31
2023-08-16T22:45:33.020Z,100053.06
2023-08-16T22:48:35.912Z,100055.56
2023-08-16T22:51:38.939Z,100066.56
2023-08-16T22:54:41.848Z,100054.63
2023-08-16T22:57:46.933Z,100052.63
2023-08-16T23:00:51.173Z,100045.47
2023-08-16T23:03:54.267Z,100026.63
2023-08-16T23:06:57.158Z,100036.13
2023-08-16T23:10:00.211Z,100017.16
2023-08-16T23:13:03.346Z,99999.13
2023-08-16T23:16:07.685Z,99993.38
2023-08-16T23:19:10.589Z,99994.16
2023-08-16T23:22:13.577Z,100004.56
2023-08-16T23:25:16.435Z,100003.75
2023-08-16T23:28:21.017Z,100011.22
2023-08-16T23:31:25.264Z,100013.53
2023-08-16T23:34:28.444Z,100020.97
2023-08-16T23:37:31.363Z,100031.88
2023-08-16T23:40:34.204Z,100026.75
2023-08-16T23:43:40.050Z,100016.06
2023-08-16T23:46:44.546Z,100037.47
2023-08-16T23:49:47.692Z,100029.69
2023-08-16T23:52:50.553Z,100043.34
2023-08-16T23:55:54.201Z,100031.69
2023-08-16T23:58:58.909Z,100032.94
